Aeroporto :
LOGIN :

Iscrizione | Disclaimer

   EN    FR    IT 

 










Sommario :    VFR   VFR Marginale   IFR   IFR Intensivo   IFR Molto Intensivo
Visibilità : 
Base nubi : 
>= 8 km
>= 3000ft
5 / 8 km
1000 / 3000 ft
1500m / 5 km
500 / 1000 ft
800 / 1500m
200 / 500 ft
< 800m
< 200 ft
Simboli :   Temporali  Nebbia  Neve Forte  Precipitazioni Forti  Vento > 20 kt
SIGMETs :   Varie  Temporali  Ghiacco  Turbolenza  Onda orograficha  Ceneri Vulcaniche






- Altitudine del aeroporto : 83 ft
- Codice IATA : LHR


EGLL - London Heathrow

ULTIMO METAR :
  • 171920Z AUTO 22010KT 9999 NCD 05/03 Q1018 NOSIG

METARs OBSOLETI :
  • 171850Z AUTO 23008KT 9999 NCD 05/03 Q1017 NOSIG
  • 171820Z AUTO 23009KT 9999 NCD 05/03 Q1017
  • 171750Z AUTO 24010KT 9999 NCD 06/02 Q1017 NOSIG
  • 171720Z AUTO 25010KT 9999 NCD 06/02 Q1017 NOSIG
  • 171650Z AUTO 24011KT 9999 NCD 06/03 Q1016 NOSIG

TAF TAF EGLL
Valido dal 17 a 18 ore il 19 a 00 ore UTC


171650Z 1718/1824 23010KT 9999 SCT040
PROB30
TEMPO 1718/1722 7000 SHRA BKN014
PROB30 1804/1809 8000
BECMG 1809/1812 32006KT
PROB30 1821/1824 8000



MetMap, La meteo Aeronautica in un colpo d'occhio ! - Copyright ORBIFLY Dicembre 2007 - Disclaimer

ORBIFLY MET'MAP TEAM :

Programmazione e sviluppo : Alexandra Zaïnal
Concezione : Baudouin d'Aumeries
Aiuto per la programmazione : Marc-Olivier Méhu
Supporto tecnico e logistico : Manuel Goepfert
Aiuto per la traduzione : Arnaldo La Scala

Contatto : metmap@orbifly.com




FONTI E CREDITI :

   NOAA